Time;durP1;ratioP1;P1;durP2;ratioP2;P2;SDS_P1;SDS_P2;PMS_P1;PMS_P2;Temp;Humidity;BMP_temperature;BMP_pressure;BME280_temperature;BME280_humidity;BME280_pressure;Samples;Min_cycle;Max_cycle;Signal;HPM_P1;HPM_P2
2021/07/18 00:00:30;;;;;;;5.87;3.27;;;;;;;;;;5053723;28;20378;-79
2021/07/18 00:02:56;;;;;;;4.40;3.57;;;;;;;;;;5053441;28;20408;-79
2021/07/18 00:05:22;;;;;;;4.83;3.23;;;;;;;;;;5052424;28;20490;-79
2021/07/18 00:07:48;;;;;;;5.00;2.90;;;;;;;;;;5052511;28;20383;-79
2021/07/18 00:10:15;;;;;;;3.90;3.50;;;;;;;;;;5053670;28;20411;-79
2021/07/18 00:12:41;;;;;;;6.47;3.60;;;;;;;;;;5052225;28;20467;-79
2021/07/18 00:15:24;;;;;;;6.67;3.27;;;;;;;;;;5053292;28;20771;-79
2021/07/18 00:17:50;;;;;;;5.00;3.37;;;;;;;;;;5052265;28;20416;-78
2021/07/18 00:20:16;;;;;;;3.70;3.40;;;;;;;;;;5035669;28;20834;-79
2021/07/18 00:22:43;;;;;;;9.67;4.37;;;;;;;;;;5052118;28;20879;-79
2021/07/18 00:25:09;;;;;;;6.20;3.30;;;;;;;;;;5053432;28;20803;-79
2021/07/18 00:27:35;;;;;;;7.87;3.67;;;;;;;;;;5052841;28;20470;-78
2021/07/18 00:30:02;;;;;;;6.40;3.33;;;;;;;;;;5052187;28;20435;-78
2021/07/18 00:32:28;;;;;;;4.17;3.50;;;;;;;;;;5053070;28;20442;-79
2021/07/18 00:34:54;;;;;;;6.07;3.67;;;;;;;;;;5052706;28;20456;-78
2021/07/18 00:37:20;;;;;;;6.00;4.07;;;;;;;;;;5053366;28;20881;-79
2021/07/18 00:39:46;;;;;;;3.80;3.50;;;;;;;;;;5052001;28;20792;-79
2021/07/18 00:42:16;;;;;;;5.70;4.10;;;;;;;;;;5053370;28;20416;-79
2021/07/18 00:44:42;;;;;;;6.20;3.80;;;;;;;;;;5052666;28;20406;-79
2021/07/18 00:47:08;;;;;;;8.03;3.70;;;;;;;;;;5051919;28;20761;-79
2021/07/18 00:49:37;;;;;;;4.10;3.80;;;;;;;;;;5053057;28;20486;-79
2021/07/18 00:52:03;;;;;;;8.07;4.00;;;;;;;;;;5053194;28;20436;-79
2021/07/18 00:54:29;;;;;;;6.93;4.30;;;;;;;;;;5052691;28;20426;-79
2021/07/18 00:56:57;;;;;;;6.30;4.37;;;;;;;;;;5051714;28;20409;-79
2021/07/18 00:59:23;;;;;;;8.93;3.77;;;;;;;;;;5053004;28;20371;-78
2021/07/18 01:01:49;;;;;;;6.00;3.50;;;;;;;;;;5053192;28;20998;-78
2021/07/18 01:04:15;;;;;;;6.03;4.00;;;;;;;;;;5052670;28;20424;-79
2021/07/18 01:06:41;;;;;;;9.10;4.50;;;;;;;;;;5052882;28;20497;-79
2021/07/18 01:09:07;;;;;;;6.77;4.60;;;;;;;;;;5052936;28;20444;-79
2021/07/18 01:11:33;;;;;;;10.90;4.57;;;;;;;;;;5052922;28;20467;-79
2021/07/18 01:13:59;;;;;;;10.23;4.43;;;;;;;;;;5051352;28;20419;-79
2021/07/18 01:16:28;;;;;;;9.43;5.00;;;;;;;;;;5052871;28;20769;-78
2021/07/18 01:18:54;;;;;;;7.30;4.40;;;;;;;;;;5052619;28;20503;-79
2021/07/18 01:21:24;;;;;;;5.60;4.37;;;;;;;;;;5052721;28;20434;-78
2021/07/18 01:23:51;;;;;;;12.27;5.10;;;;;;;;;;5052379;28;20408;-79
2021/07/18 01:26:17;;;;;;;7.97;5.10;;;;;;;;;;5052771;28;20412;-79
2021/07/18 01:28:43;;;;;;;13.90;5.77;;;;;;;;;;5052662;28;20412;-79
2021/07/18 01:31:09;;;;;;;6.83;4.40;;;;;;;;;;5052484;28;20562;-79
2021/07/18 01:33:35;;;;;;;8.03;5.17;;;;;;;;;;5052308;28;20464;-78
2021/07/18 01:36:01;;;;;;;9.17;5.40;;;;;;;;;;5052589;28;20449;-79
2021/07/18 01:38:27;;;;;;;11.50;5.60;;;;;;;;;;5051435;28;20419;-79
2021/07/18 01:40:53;;;;;;;8.93;5.87;;;;;;;;;;5055617;28;21036;-79
2021/07/18 01:43:19;;;;;;;9.93;5.70;;;;;;;;;;5055961;28;20390;-78
2021/07/18 01:45:45;;;;;;;6.17;4.37;;;;;;;;;;5056153;28;20507;-78
2021/07/18 01:48:11;;;;;;;6.50;5.23;;;;;;;;;;5055431;28;20379;-78
2021/07/18 01:50:37;;;;;;;9.60;4.73;;;;;;;;;;5055196;28;20408;-78
2021/07/18 01:53:05;;;;;;;11.73;5.37;;;;;;;;;;5056101;28;20415;-78
2021/07/18 01:55:31;;;;;;;8.57;5.30;;;;;;;;;;5056064;28;20423;-78
2021/07/18 01:57:57;;;;;;;7.27;5.10;;;;;;;;;;5056175;28;20916;-78
2021/07/18 02:00:23;;;;;;;11.13;4.77;;;;;;;;;;5056221;28;20411;-79
2021/07/18 02:02:50;;;;;;;5.40;4.37;;;;;;;;;;5055822;28;20430;-78
2021/07/18 02:05:17;;;;;;;12.17;4.63;;;;;;;;;;5055811;28;20820;-79
2021/07/18 02:07:44;;;;;;;8.37;4.97;;;;;;;;;;5056022;28;20415;-78
2021/07/18 02:10:11;;;;;;;6.50;5.90;;;;;;;;;;5055980;28;20411;-78
2021/07/18 02:12:37;;;;;;;12.53;5.07;;;;;;;;;;5055783;28;20498;-78
2021/07/18 02:15:10;;;;;;;10.13;6.60;;;;;;;;;;5055697;28;20851;-78
2021/07/18 02:17:36;;;;;;;5.20;4.70;;;;;;;;;;5055864;28;20515;-78
2021/07/18 02:20:05;;;;;;;10.83;6.13;;;;;;;;;;5055725;28;20408;-78
2021/07/18 02:22:37;;;;;;;13.60;5.93;;;;;;;;;;5055699;28;20466;-78
2021/07/18 02:25:04;;;;;;;15.30;5.30;;;;;;;;;;5055427;28;20423;-78
2021/07/18 02:27:30;;;;;;;6.43;5.07;;;;;;;;;;5055463;28;20404;-78
2021/07/18 02:29:56;;;;;;;9.17;5.10;;;;;;;;;;5055523;28;21012;-78
2021/07/18 02:32:22;;;;;;;7.13;5.20;;;;;;;;;;5055435;28;20574;-78
2021/07/18 02:34:48;;;;;;;11.30;5.73;;;;;;;;;;5053846;28;20440;-78
2021/07/18 02:37:14;;;;;;;9.00;4.80;;;;;;;;;;5055430;28;20409;-78
2021/07/18 02:39:40;;;;;;;11.60;4.60;;;;;;;;;;5053973;28;20780;-79
2021/07/18 02:42:06;;;;;;;6.67;5.57;;;;;;;;;;5054154;28;20427;-78
2021/07/18 02:44:36;;;;;;;13.07;5.70;;;;;;;;;;5053555;28;20979;-78
2021/07/18 02:47:10;;;;;;;5.33;4.80;;;;;;;;;;5055428;28;20386;-78
2021/07/18 02:49:36;;;;;;;7.20;4.80;;;;;;;;;;5055170;28;20415;-78
2021/07/18 02:52:03;;;;;;;8.70;4.20;;;;;;;;;;5054554;28;20467;-78
2021/07/18 02:54:30;;;;;;;9.57;4.33;;;;;;;;;;5054789;28;20427;-78
2021/07/18 02:56:56;;;;;;;5.87;4.57;;;;;;;;;;5055010;28;20412;-78
2021/07/18 02:59:21;;;;;;;11.63;5.43;;;;;;;;;;5054898;28;20408;-79
2021/07/18 03:01:47;;;;;;;7.17;5.30;;;;;;;;;;5054887;28;20466;-78
2021/07/18 03:04:13;;;;;;;9.80;4.80;;;;;;;;;;5054585;28;20920;-78
2021/07/18 03:06:39;;;;;;;8.30;5.23;;;;;;;;;;5055124;28;20418;-78
2021/07/18 03:09:05;;;;;;;12.13;5.30;;;;;;;;;;5054756;28;20420;-78
2021/07/18 03:11:31;;;;;;;6.53;4.47;;;;;;;;;;5053578;28;20471;-78
2021/07/18 03:13:57;;;;;;;5.77;4.50;;;;;;;;;;5054285;28;20404;-77
2021/07/18 03:16:23;;;;;;;6.77;5.00;;;;;;;;;;5054667;28;20891;-78
2021/07/18 03:18:49;;;;;;;5.90;4.70;;;;;;;;;;5054616;28;20416;-79
2021/07/18 03:21:15;;;;;;;8.83;5.30;;;;;;;;;;5053471;28;20443;-78
2021/07/18 03:23:41;;;;;;;9.53;5.63;;;;;;;;;;5054224;28;20412;-78
2021/07/18 03:26:07;;;;;;;5.47;3.90;;;;;;;;;;5054341;28;20440;-78
2021/07/18 03:28:33;;;;;;;5.63;5.00;;;;;;;;;;5054331;28;20416;-78
2021/07/18 03:30:59;;;;;;;7.87;4.93;;;;;;;;;;5054400;28;20454;-77
2021/07/18 03:33:25;;;;;;;9.03;5.57;;;;;;;;;;5053996;28;20410;-78
2021/07/18 03:35:52;;;;;;;5.70;5.10;;;;;;;;;;5054095;28;20542;-77
2021/07/18 03:38:18;;;;;;;7.13;4.77;;;;;;;;;;5054359;28;20412;-77
2021/07/18 03:40:44;;;;;;;8.47;6.50;;;;;;;;;;5054226;28;20777;-77
2021/07/18 03:43:10;;;;;;;9.17;5.00;;;;;;;;;;5053842;28;20845;-78
2021/07/18 03:45:36;;;;;;;10.10;5.90;;;;;;;;;;5054093;28;20467;-78
2021/07/18 03:48:04;;;;;;;8.83;5.93;;;;;;;;;;5054061;28;20408;-77
2021/07/18 03:50:30;;;;;;;9.00;6.00;;;;;;;;;;5053854;28;20436;-78
2021/07/18 03:52:55;;;;;;;11.30;6.27;;;;;;;;;;5053662;28;20455;-77
2021/07/18 03:55:22;;;;;;;7.53;5.80;;;;;;;;;;5053820;28;20467;-79
2021/07/18 03:57:48;;;;;;;8.53;6.10;;;;;;;;;;5053856;28;20912;-77
2021/07/18 04:00:15;;;;;;;16.53;6.50;;;;;;;;;;5052589;28;20825;-79
2021/07/18 04:02:41;;;;;;;13.30;7.03;;;;;;;;;;5051942;28;20446;-78
2021/07/18 04:05:07;;;;;;;11.83;6.47;;;;;;;;;;5053713;28;20444;-77
2021/07/18 04:07:34;;;;;;;9.53;6.23;;;;;;;;;;5053755;28;20415;-77
2021/07/18 04:10:04;;;;;;;11.93;6.17;;;;;;;;;;5053680;28;20753;-77
2021/07/18 04:12:30;;;;;;;15.80;6.27;;;;;;;;;;5053520;28;20464;-77
2021/07/18 04:14:56;;;;;;;9.53;6.50;;;;;;;;;;5053313;28;20432;-77
2021/07/18 04:17:22;;;;;;;12.33;6.20;;;;;;;;;;5053693;28;20748;-78
2021/07/18 04:19:48;;;;;;;10.00;5.67;;;;;;;;;;5053623;28;20754;-78
2021/07/18 04:22:14;;;;;;;7.37;5.50;;;;;;;;;;5052491;28;20519;-78
2021/07/18 04:24:40;;;;;;;12.30;6.30;;;;;;;;;;5052999;28;20803;-77
2021/07/18 04:27:07;;;;;;;8.40;5.63;;;;;;;;;;5053517;28;20411;-77
2021/07/18 04:29:33;;;;;;;12.50;5.20;;;;;;;;;;5053415;28;20408;-77
2021/07/18 04:31:59;;;;;;;9.80;6.47;;;;;;;;;;5052392;28;20563;-77
2021/07/18 04:34:25;;;;;;;8.13;5.10;;;;;;;;;;5052809;28;20932;-77
2021/07/18 04:36:58;;;;;;;8.77;6.23;;;;;;;;;;5053142;28;20526;-78
2021/07/18 04:39:24;;;;;;;8.50;5.63;;;;;;;;;;5035370;28;20841;-77
2021/07/18 04:41:50;;;;;;;8.07;5.43;;;;;;;;;;5053199;28;20420;-77
2021/07/18 04:44:16;;;;;;;15.33;6.20;;;;;;;;;;5052751;28;20808;-77
2021/07/18 04:46:42;;;;;;;9.23;6.67;;;;;;;;;;5052992;28;20420;-77
2021/07/18 04:49:08;;;;;;;10.63;6.70;;;;;;;;;;5053104;28;20970;-77
2021/07/18 04:51:35;;;;;;;10.93;6.93;;;;;;;;;;5053046;28;20459;-77
2021/07/18 04:54:01;;;;;;;11.27;7.27;;;;;;;;;;5052809;28;20408;-77
2021/07/18 04:56:27;;;;;;;9.50;7.27;;;;;;;;;;5052864;28;20419;-77
2021/07/18 04:58:53;;;;;;;15.40;7.73;;;;;;;;;;5051602;28;20424;-77
2021/07/18 05:01:19;;;;;;;11.77;7.60;;;;;;;;;;5053018;28;20420;-77
2021/07/18 05:03:45;;;;;;;13.63;7.00;;;;;;;;;;5052689;28;20481;-77
2021/07/18 05:06:11;;;;;;;12.37;7.27;;;;;;;;;;5051761;28;20439;-77
2021/07/18 05:08:37;;;;;;;13.53;8.10;;;;;;;;;;5052826;28;20419;-77
2021/07/18 05:11:04;;;;;;;15.80;8.27;;;;;;;;;;5052952;28;20463;-77
2021/07/18 05:13:30;;;;;;;16.67;8.33;;;;;;;;;;5053580;28;20771;-77
2021/07/18 05:15:56;;;;;;;16.50;8.27;;;;;;;;;;5056846;28;20485;-77
2021/07/18 05:18:22;;;;;;;17.80;8.13;;;;;;;;;;5055600;28;20422;-77
2021/07/18 05:20:48;;;;;;;12.07;7.90;;;;;;;;;;5056626;28;20832;-77
2021/07/18 05:23:14;;;;;;;11.40;8.20;;;;;;;;;;5056460;28;20407;-77
2021/07/18 05:25:40;;;;;;;16.17;8.50;;;;;;;;;;5056696;28;20994;-77
2021/07/18 05:28:06;;;;;;;14.20;7.80;;;;;;;;;;5056717;28;20404;-77
2021/07/18 05:30:32;;;;;;;18.87;7.87;;;;;;;;;;5056466;28;20407;-77
2021/07/18 05:32:58;;;;;;;13.10;8.50;;;;;;;;;;5054881;28;20412;-77
2021/07/18 05:35:24;;;;;;;17.27;10.07;;;;;;;;;;5056338;28;20508;-77
2021/07/18 05:37:50;;;;;;;15.00;9.13;;;;;;;;;;5056579;28;20383;-77
2021/07/18 05:40:17;;;;;;;18.03;9.43;;;;;;;;;;5056494;28;20496;-77
2021/07/18 05:42:43;;;;;;;18.77;11.20;;;;;;;;;;5056358;28;20795;-77
2021/07/18 05:45:10;;;;;;;15.27;10.00;;;;;;;;;;5054998;28;20421;-77
2021/07/18 05:47:36;;;;;;;21.73;11.70;;;;;;;;;;5056456;28;20408;-77
2021/07/18 05:50:03;;;;;;;19.53;11.50;;;;;;;;;;5056387;28;20410;-77
2021/07/18 05:52:29;;;;;;;16.60;10.90;;;;;;;;;;5056204;28;20462;-77
2021/07/18 05:54:56;;;;;;;19.53;11.83;;;;;;;;;;5055798;28;20424;-77
2021/07/18 05:57:22;;;;;;;21.23;12.77;;;;;;;;;;5056171;28;20541;-78
2021/07/18 05:59:48;;;;;;;23.80;12.80;;;;;;;;;;5056247;28;20446;-77
2021/07/18 06:02:15;;;;;;;19.97;13.23;;;;;;;;;;5055126;28;20416;-77
2021/07/18 06:04:41;;;;;;;22.70;13.70;;;;;;;;;;5055617;28;20410;-77
2021/07/18 06:07:08;;;;;;;24.27;13.40;;;;;;;;;;5054767;28;20447;-78
2021/07/18 06:09:34;;;;;;;17.77;13.30;;;;;;;;;;5055921;28;20503;-77
2021/07/18 06:12:00;;;;;;;22.73;14.40;;;;;;;;;;5054583;28;20572;-77
2021/07/18 06:14:26;;;;;;;20.23;13.70;;;;;;;;;;5055385;28;20436;-77
2021/07/18 06:16:52;;;;;;;21.17;14.03;;;;;;;;;;5055751;28;20386;-76
2021/07/18 06:19:18;;;;;;;26.87;15.90;;;;;;;;;;5055552;28;20382;-77
2021/07/18 06:21:44;;;;;;;22.33;16.63;;;;;;;;;;5055701;28;20510;-77
2021/07/18 06:24:10;;;;;;;24.30;16.03;;;;;;;;;;5055496;28;20431;-76
2021/07/18 06:26:36;;;;;;;26.00;17.77;;;;;;;;;;5054874;28;20422;-77
2021/07/18 06:29:02;;;;;;;24.87;17.00;;;;;;;;;;5055555;28;20410;-77
2021/07/18 06:31:28;;;;;;;25.53;16.83;;;;;;;;;;5055362;28;20521;-76
2021/07/18 06:33:54;;;;;;;28.00;19.00;;;;;;;;;;5055104;28;20458;-77
2021/07/18 06:36:20;;;;;;;36.60;20.20;;;;;;;;;;5054009;28;20410;-77
2021/07/18 06:38:46;;;;;;;26.63;18.87;;;;;;;;;;5055432;28;20500;-77
2021/07/18 06:41:13;;;;;;;25.10;19.73;;;;;;;;;;5053988;28;20420;-77
2021/07/18 06:43:39;;;;;;;25.40;20.30;;;;;;;;;;5054878;28;20518;-76
2021/07/18 06:46:05;;;;;;;27.40;20.47;;;;;;;;;;5055055;28;20806;-77
2021/07/18 06:48:31;;;;;;;27.20;20.00;;;;;;;;;;5055213;28;20474;-76
2021/07/18 06:50:57;;;;;;;24.70;20.30;;;;;;;;;;5055264;28;20470;-77
2021/07/18 06:53:23;;;;;;;25.00;19.83;;;;;;;;;;5054956;28;20442;-77
2021/07/18 06:55:50;;;;;;;20.37;16.83;;;;;;;;;;5054887;28;20439;-76
2021/07/18 06:58:16;;;;;;;22.87;16.00;;;;;;;;;;5054108;28;20813;-77
2021/07/18 07:00:42;;;;;;;25.87;19.50;;;;;;;;;;5053578;28;20412;-77
2021/07/18 07:03:08;;;;;;;24.07;19.83;;;;;;;;;;5054585;28;20383;-77
2021/07/18 07:05:34;;;;;;;26.50;21.27;;;;;;;;;;5053498;28;20428;-77
2021/07/18 07:08:00;;;;;;;28.20;21.57;;;;;;;;;;5054776;28;20412;-77
2021/07/18 07:10:26;;;;;;;22.17;18.50;;;;;;;;;;5054636;28;20469;-76
2021/07/18 07:12:52;;;;;;;27.57;20.63;;;;;;;;;;5054444;28;21533;-77
2021/07/18 07:15:18;;;;;;;27.33;19.43;;;;;;;;;;5054761;28;20424;-77
2021/07/18 07:17:44;;;;;;;24.40;20.17;;;;;;;;;;5053178;28;20442;-77
2021/07/18 07:20:11;;;;;;;30.00;22.90;;;;;;;;;;5054535;28;20534;-76
2021/07/18 07:22:38;;;;;;;29.33;22.03;;;;;;;;;;5054252;28;20394;-77
2021/07/18 07:25:08;;;;;;;24.97;21.93;;;;;;;;;;5054257;28;20424;-76
2021/07/18 07:27:35;;;;;;;20.00;15.60;;;;;;;;;;5054412;28;20418;-77
2021/07/18 07:30:01;;;;;;;23.07;17.60;;;;;;;;;;5054310;28;20416;-77
2021/07/18 07:32:27;;;;;;;21.60;15.90;;;;;;;;;;5054148;28;20438;-77
2021/07/18 07:34:53;;;;;;;18.30;14.23;;;;;;;;;;5053744;28;20853;-77
2021/07/18 07:37:24;;;;;;;18.43;14.53;;;;;;;;;;5054176;28;20898;-77
2021/07/18 07:39:50;;;;;;;17.67;14.70;;;;;;;;;;5054078;28;20395;-77
2021/07/18 07:42:15;;;;;;;21.57;17.60;;;;;;;;;;5053997;28;20404;-77
2021/07/18 07:44:41;;;;;;;14.80;13.40;;;;;;;;;;5053716;28;20914;-78
2021/07/18 07:47:07;;;;;;;16.27;11.87;;;;;;;;;;5052895;28;20512;-77
2021/07/18 07:49:45;;;;;;;13.70;11.27;;;;;;;;;;5053949;28;20423;-77
2021/07/18 07:52:12;;;;;;;18.27;11.77;;;;;;;;;;5053732;28;20433;-77
2021/07/18 07:54:38;;;;;;;12.57;9.37;;;;;;;;;;5053555;28;20402;-77
2021/07/18 07:57:05;;;;;;;12.33;9.33;;;;;;;;;;5053743;28;20383;-77
2021/07/18 07:59:31;;;;;;;8.33;6.90;;;;;;;;;;5053784;28;20474;-77
2021/07/18 08:01:58;;;;;;;9.60;6.20;;;;;;;;;;5053626;28;20494;-78
2021/07/18 08:04:24;;;;;;;10.63;7.27;;;;;;;;;;5053324;28;20440;-77
2021/07/18 08:06:50;;;;;;;10.13;6.60;;;;;;;;;;5053587;28;20503;-77
2021/07/18 08:09:16;;;;;;;6.50;5.13;;;;;;;;;;5053714;28;20379;-78
2021/07/18 08:11:42;;;;;;;8.47;6.00;;;;;;;;;;5053696;28;20470;-77
2021/07/18 08:14:09;;;;;;;5.93;4.80;;;;;;;;;;5053073;28;20428;-78
2021/07/18 08:16:35;;;;;;;5.93;3.93;;;;;;;;;;5053508;28;20386;-78
2021/07/18 08:19:01;;;;;;;5.00;3.83;;;;;;;;;;5053557;28;20419;-78
2021/07/18 08:21:27;;;;;;;5.20;4.00;;;;;;;;;;5052004;28;20424;-78
2021/07/18 08:23:53;;;;;;;5.67;3.83;;;;;;;;;;5052911;28;20420;-79
2021/07/18 08:26:20;;;;;;;5.50;4.40;;;;;;;;;;5053211;28;20951;-78
2021/07/18 08:28:49;;;;;;;4.70;4.30;;;;;;;;;;5053358;28;20405;-78
2021/07/18 08:31:17;;;;;;;4.93;4.33;;;;;;;;;;5050799;28;20863;-79
2021/07/18 08:33:43;;;;;;;4.53;4.00;;;;;;;;;;5052852;28;20408;-78
2021/07/18 08:36:09;;;;;;;4.33;3.93;;;;;;;;;;5052971;28;20451;-78
2021/07/18 08:38:35;;;;;;;5.20;4.70;;;;;;;;;;5035481;28;20459;-79
2021/07/18 08:41:01;;;;;;;6.20;4.90;;;;;;;;;;5053215;28;20411;-78
2021/07/18 08:43:28;;;;;;;5.30;4.67;;;;;;;;;;5052805;28;20908;-79
2021/07/18 08:45:54;;;;;;;8.40;4.87;;;;;;;;;;5052977;28;20916;-78
2021/07/18 08:48:20;;;;;;;5.77;5.27;;;;;;;;;;5051369;28;20470;-79
2021/07/18 08:50:48;;;;;;;5.53;4.80;;;;;;;;;;5052976;28;20474;-79
2021/07/18 08:53:15;;;;;;;9.23;5.30;;;;;;;;;;5052793;28;20834;-79
2021/07/18 08:55:41;;;;;;;5.60;3.73;;;;;;;;;;5053123;28;20523;-78
2021/07/18 08:58:09;;;;;;;5.57;4.43;;;;;;;;;;5052941;28;20813;-78
2021/07/18 09:00:35;;;;;;;4.80;4.40;;;;;;;;;;5052975;28;20485;-78
2021/07/18 09:03:01;;;;;;;4.10;3.70;;;;;;;;;;5052795;28;20966;-78
2021/07/18 09:05:27;;;;;;;6.63;3.90;;;;;;;;;;5053050;28;20522;-78
2021/07/18 09:07:57;;;;;;;5.63;4.80;;;;;;;;;;5053057;28;20915;-78
2021/07/18 09:10:24;;;;;;;6.97;5.20;;;;;;;;;;5052846;28;20889;-79
2021/07/18 09:13:03;;;;;;;5.07;4.57;;;;;;;;;;5052513;28;20455;-78
2021/07/18 09:15:42;;;;;;;7.47;4.93;;;;;;;;;;5052727;28;20430;-79
2021/07/18 09:18:09;;;;;;;5.93;4.30;;;;;;;;;;5051589;28;20412;-78
2021/07/18 09:20:43;;;;;;;5.00;3.77;;;;;;;;;;5051782;28;20419;-79
2021/07/18 09:23:19;;;;;;;6.80;3.90;;;;;;;;;;5051108;28;20408;-79
2021/07/18 09:25:46;;;;;;;6.50;4.07;;;;;;;;;;5052517;28;20424;-79
2021/07/18 09:28:14;;;;;;;9.47;4.97;;;;;;;;;;5051589;28;20412;-79
2021/07/18 09:30:40;;;;;;;5.30;4.80;;;;;;;;;;5051199;28;20411;-79
2021/07/18 09:33:07;;;;;;;6.73;4.23;;;;;;;;;;5052410;28;20758;-79
2021/07/18 09:35:33;;;;;;;9.10;5.50;;;;;;;;;;5052518;28;20471;-79
2021/07/18 09:37:59;;;;;;;6.37;4.87;;;;;;;;;;5051369;28;20423;-79
2021/07/18 09:40:27;;;;;;;6.80;5.07;;;;;;;;;;5051214;28;20947;-79
2021/07/18 09:42:56;;;;;;;7.57;5.63;;;;;;;;;;5052090;28;20408;-78
2021/07/18 09:45:23;;;;;;;6.37;4.40;;;;;;;;;;5052468;28;20428;-80
2021/07/18 09:47:54;;;;;;;6.93;5.00;;;;;;;;;;5052514;28;20836;-79
2021/07/18 09:50:20;;;;;;;9.20;5.20;;;;;;;;;;5052492;28;20408;-79
2021/07/18 09:52:49;;;;;;;7.90;4.97;;;;;;;;;;5034359;28;21074;-79
2021/07/18 09:55:24;;;;;;;10.00;4.83;;;;;;;;;;5052451;28;20436;-79
2021/07/18 09:57:53;;;;;;;7.40;4.80;;;;;;;;;;5052519;28;20900;-79
2021/07/18 10:00:22;;;;;;;6.43;5.10;;;;;;;;;;5053217;28;20411;-79
2021/07/18 10:03:23;;;;;;;6.70;4.30;;;;;;;;;;5054370;28;20480;-79
2021/07/18 10:06:08;;;;;;;9.67;4.60;;;;;;;;;;5055873;28;20458;-79
2021/07/18 10:08:35;;;;;;;7.17;4.40;;;;;;;;;;5054760;28;20498;-79
2021/07/18 10:11:01;;;;;;;8.03;5.13;;;;;;;;;;5055752;28;20487;-80
2021/07/18 10:13:27;;;;;;;5.67;4.70;;;;;;;;;;5055762;28;20397;-79
2021/07/18 10:15:54;;;;;;;5.07;4.43;;;;;;;;;;5055965;28;20467;-79
2021/07/18 10:18:20;;;;;;;7.80;4.40;;;;;;;;;;5055976;28;20887;-79
2021/07/18 10:20:49;;;;;;;5.23;3.40;;;;;;;;;;5055944;28;20408;-80
2021/07/18 10:23:17;;;;;;;5.60;4.03;;;;;;;;;;5055303;28;20447;-79
2021/07/18 10:25:45;;;;;;;6.07;3.90;;;;;;;;;;5054344;28;20471;-79
2021/07/18 10:28:11;;;;;;;6.47;3.60;;;;;;;;;;5055754;28;20404;-79
2021/07/18 10:30:43;;;;;;;5.73;3.90;;;;;;;;;;5054400;28;20474;-79
2021/07/18 10:33:09;;;;;;;5.40;3.93;;;;;;;;;;5055188;28;20465;-80
2021/07/18 10:35:36;;;;;;;8.00;3.10;;;;;;;;;;5055284;28;20447;-79
2021/07/18 10:38:22;;;;;;;4.63;3.23;;;;;;;;;;5054343;28;20598;-77
2021/07/18 10:40:59;;;;;;;4.03;2.80;;;;;;;;;;5055401;28;20404;-79
2021/07/18 10:43:41;;;;;;;3.10;2.80;;;;;;;;;;5053701;28;20431;-79
2021/07/18 10:46:12;;;;;;;5.67;3.17;;;;;;;;;;5055283;28;20416;-79
2021/07/18 10:48:44;;;;;;;3.30;2.57;;;;;;;;;;5055171;28;20407;-79
2021/07/18 10:51:11;;;;;;;3.30;3.00;;;;;;;;;;5053636;28;20463;-80
2021/07/18 10:53:38;;;;;;;3.50;2.70;;;;;;;;;;5036954;28;20815;-79
2021/07/18 10:56:04;;;;;;;3.40;2.70;;;;;;;;;;5054810;28;20452;-79
2021/07/18 10:58:39;;;;;;;4.97;2.53;;;;;;;;;;5055297;28;20443;-79
2021/07/18 11:01:11;;;;;;;4.27;2.50;;;;;;;;;;5055259;28;20408;-79
2021/07/18 11:03:39;;;;;;;3.50;2.47;;;;;;;;;;5054817;28;20562;-79
2021/07/18 11:06:28;;;;;;;2.97;2.30;;;;;;;;;;5053583;28;20467;-79
2021/07/18 11:09:07;;;;;;;3.73;2.20;;;;;;;;;;5053728;28;20420;-79
2021/07/18 11:11:44;;;;;;;2.80;1.87;;;;;;;;;;5054266;28;20499;-79
2021/07/18 11:14:22;;;;;;;2.40;1.93;;;;;;;;;;5054517;28;20439;-79
2021/07/18 11:16:53;;;;;;;3.30;2.20;;;;;;;;;;5054863;28;20449;-79
2021/07/18 11:19:37;;;;;;;2.93;1.93;;;;;;;;;;5054745;28;20432;-79
2021/07/18 11:22:07;;;;;;;3.20;2.00;;;;;;;;;;5054647;28;20775;-79
2021/07/18 11:24:55;;;;;;;3.47;1.90;;;;;;;;;;5054195;28;20765;-80
2021/07/18 11:27:28;;;;;;;4.17;2.40;;;;;;;;;;5053373;28;20897;-79
2021/07/18 11:29:55;;;;;;;2.83;1.93;;;;;;;;;;5037746;28;20416;-79
2021/07/18 11:32:30;;;;;;;2.30;2.00;;;;;;;;;;5054301;28;20455;-80
2021/07/18 11:34:57;;;;;;;6.23;2.50;;;;;;;;;;5052647;28;20517;-79
2021/07/18 11:37:23;;;;;;;4.87;1.70;;;;;;;;;;5054348;28;20409;-80
2021/07/18 11:39:49;;;;;;;2.73;1.90;;;;;;;;;;5054275;28;20400;-79
2021/07/18 11:42:17;;;;;;;2.40;1.80;;;;;;;;;;5054270;28;20980;-79
2021/07/18 11:44:44;;;;;;;5.70;2.27;;;;;;;;;;5053775;28;20431;-79
2021/07/18 11:47:15;;;;;;;2.37;2.13;;;;;;;;;;5052852;28;20416;-80
2021/07/18 11:49:43;;;;;;;2.67;1.83;;;;;;;;;;5053874;28;21010;-80
2021/07/18 11:52:09;;;;;;;2.17;1.93;;;;;;;;;;5053950;28;20520;-80
2021/07/18 11:54:36;;;;;;;2.77;2.20;;;;;;;;;;5053526;28;20899;-77
2021/07/18 11:57:04;;;;;;;3.30;2.40;;;;;;;;;;5054060;28;20795;-77
2021/07/18 11:59:30;;;;;;;3.20;1.80;;;;;;;;;;5054075;28;20409;-79
2021/07/18 12:01:56;;;;;;;2.47;1.93;;;;;;;;;;5052614;28;20755;-80
2021/07/18 12:04:24;;;;;;;2.53;1.63;;;;;;;;;;5053436;28;20459;-81
2021/07/18 12:06:57;;;;;;;2.30;2.03;;;;;;;;;;5053748;28;20408;-79
2021/07/18 12:09:25;;;;;;;2.40;1.73;;;;;;;;;;5052420;28;20435;-79
2021/07/18 12:11:52;;;;;;;4.47;2.07;;;;;;;;;;5053578;28;20498;-81
2021/07/18 12:14:21;;;;;;;2.77;2.50;;;;;;;;;;5053169;28;20831;-79
2021/07/18 12:16:48;;;;;;;2.60;1.87;;;;;;;;;;5053846;28;20404;-80
2021/07/18 12:19:16;;;;;;;2.17;1.77;;;;;;;;;;5052263;28;20473;-79
2021/07/18 12:21:48;;;;;;;3.33;1.50;;;;;;;;;;5052043;28;20546;-80
2021/07/18 12:24:31;;;;;;;2.90;1.90;;;;;;;;;;5050689;28;20814;-80
2021/07/18 12:27:02;;;;;;;2.63;2.00;;;;;;;;;;5051751;28;20424;-79
2021/07/18 12:29:55;;;;;;;4.33;1.90;;;;;;;;;;5051861;28;20499;-79
2021/07/18 12:32:22;;;;;;;2.20;1.50;;;;;;;;;;5048489;28;20547;-79
2021/07/18 12:34:49;;;;;;;3.80;2.17;;;;;;;;;;5052393;28;20443;-79
2021/07/18 12:37:19;;;;;;;2.80;1.93;;;;;;;;;;5053022;28;20396;-80
2021/07/18 12:39:47;;;;;;;4.23;1.80;;;;;;;;;;5053087;28;20414;-79
2021/07/18 12:42:19;;;;;;;2.90;1.80;;;;;;;;;;5051695;28;20852;-79
2021/07/18 12:44:47;;;;;;;2.80;1.97;;;;;;;;;;5052480;28;20432;-79
2021/07/18 12:47:18;;;;;;;2.03;1.70;;;;;;;;;;5052861;28;20403;-79
2021/07/18 12:49:45;;;;;;;2.13;1.93;;;;;;;;;;5052841;28;20479;-79
2021/07/18 12:52:14;;;;;;;8.33;2.30;;;;;;;;;;5051462;28;20463;-79
2021/07/18 12:54:40;;;;;;;2.83;2.07;;;;;;;;;;5052620;28;20428;-80
2021/07/18 12:57:06;;;;;;;3.30;2.13;;;;;;;;;;5052938;28;20412;-79
2021/07/18 12:59:32;;;;;;;3.03;2.00;;;;;;;;;;5051815;28;20408;-79
2021/07/18 13:02:14;;;;;;;4.20;2.03;;;;;;;;;;5053094;28;20927;-80
2021/07/18 13:04:39;;;;;;;3.70;2.73;;;;;;;;;;5052465;28;20436;-79
2021/07/18 13:07:10;;;;;;;2.83;2.30;;;;;;;;;;5052827;28;20419;-79
2021/07/18 13:09:36;;;;;;;5.23;2.17;;;;;;;;;;5052979;28;20439;-80
2021/07/18 13:12:02;;;;;;;2.10;2.00;;;;;;;;;;5052947;28;20564;-79
2021/07/18 13:14:29;;;;;;;2.53;2.03;;;;;;;;;;5052371;28;20926;-79
2021/07/18 13:17:04;;;;;;;3.80;2.13;;;;;;;;;;5052982;28;20744;-79
2021/07/18 13:19:33;;;;;;;2.27;2.07;;;;;;;;;;5052834;28;20400;-79
2021/07/18 13:22:03;;;;;;;4.90;2.83;;;;;;;;;;5052809;28;20420;-79
2021/07/18 13:24:34;;;;;;;2.70;2.50;;;;;;;;;;5052393;28;20451;-79
2021/07/18 13:27:12;;;;;;;3.63;2.23;;;;;;;;;;5052893;28;20408;-79
2021/07/18 13:30:04;;;;;;;2.50;2.30;;;;;;;;;;5053060;28;20416;-79
2021/07/18 13:32:41;;;;;;;2.70;2.50;;;;;;;;;;5049880;28;20467;-79
2021/07/18 13:35:09;;;;;;;3.10;2.30;;;;;;;;;;5054422;28;20446;-79
2021/07/18 13:37:38;;;;;;;3.07;2.77;;;;;;;;;;5056828;28;20403;-79
2021/07/18 13:40:05;;;;;;;4.10;2.70;;;;;;;;;;5056678;28;20399;-79
2021/07/18 13:42:35;;;;;;;3.07;2.37;;;;;;;;;;5056409;28;20446;-79
2021/07/18 13:45:05;;;;;;;3.87;2.50;;;;;;;;;;5056145;28;20427;-79
2021/07/18 13:47:31;;;;;;;2.73;2.53;;;;;;;;;;5056447;28;20408;-79
2021/07/18 13:49:57;;;;;;;3.60;3.07;;;;;;;;;;5056217;28;20912;-79
2021/07/18 13:52:23;;;;;;;4.27;2.70;;;;;;;;;;5054907;28;20471;-79
2021/07/18 13:54:49;;;;;;;5.30;2.63;;;;;;;;;;5055690;28;20428;-79
2021/07/18 13:57:24;;;;;;;3.13;2.83;;;;;;;;;;5054924;28;20420;-79
2021/07/18 13:59:50;;;;;;;5.33;2.70;;;;;;;;;;5056543;28;20411;-79
2021/07/18 14:02:16;;;;;;;2.80;2.60;;;;;;;;;;5056268;28;20439;-79
2021/07/18 14:04:42;;;;;;;3.20;2.47;;;;;;;;;;5054608;28;20443;-81
2021/07/18 14:07:08;;;;;;;2.83;2.63;;;;;;;;;;5056096;28;20503;-80
2021/07/18 14:09:34;;;;;;;3.90;3.27;;;;;;;;;;5056061;28;20408;-79
2021/07/18 14:12:00;;;;;;;3.13;2.20;;;;;;;;;;5055911;28;20963;-79
2021/07/18 14:14:26;;;;;;;3.17;2.87;;;;;;;;;;5055574;28;20428;-79
2021/07/18 14:16:52;;;;;;;3.30;3.00;;;;;;;;;;5055746;28;20412;-79
2021/07/18 14:19:18;;;;;;;5.70;3.27;;;;;;;;;;5056103;28;20916;-79
2021/07/18 14:21:45;;;;;;;4.10;3.30;;;;;;;;;;5055836;28;20419;-78
2021/07/18 14:24:10;;;;;;;3.57;3.27;;;;;;;;;;5055557;28;20427;-79
2021/07/18 14:26:36;;;;;;;4.20;3.70;;;;;;;;;;5055656;28;20414;-79
2021/07/18 14:29:05;;;;;;;3.07;2.87;;;;;;;;;;5055700;28;20412;-79
2021/07/18 14:31:32;;;;;;;3.67;2.80;;;;;;;;;;5055678;28;20455;-79
2021/07/18 14:33:58;;;;;;;6.60;2.90;;;;;;;;;;5055226;28;20404;-79
2021/07/18 14:36:24;;;;;;;3.03;2.73;;;;;;;;;;5055437;28;20428;-77
2021/07/18 14:38:50;;;;;;;5.83;3.20;;;;;;;;;;5054099;28;20454;-77